La Grange, TX (78945)

10:18 AM CDT on July 26, 2016 (GMT -0500)
Horton Street | | Change Station

Elev 344 ft 29.92 °N, 96.87 °W | Updated 8 seconds ago

Mostly Cloudy
Mostly Cloudy
78.3 °F
Feels Like 79 °F
N
0.0
Wind Variable Wind from ENE
Gusts 0.0 mph

Today
High -- | Low -- °F
--% Chance of Precip.
Yesterday
High -- | Low -- °F
Precip. -- in
Pressure 30.01 in
Visibility 10.0 miles
Clouds Scattered Clouds 1200 ft
Mostly Cloudy 1700 ft
Mostly Cloudy 3400 ft
Heat Index 79 °F
Dew Point 51 °F
Humidity 39%
Rainfall 0.00 in
Snow Depth Not available.
6:43 AM 8:24 PM
Waning Gibbous, 54% visible
METAR KGYB 261455Z AUTO 08004KT 10SM SCT012 BKN017 BKN034 27/23 A3001 RMK AO2 T02670225
Pressure 30.01 in
Visibility 10.0 miles
Clouds Scattered Clouds 1200 ft
Mostly Cloudy 1700 ft
Mostly Cloudy 3400 ft
Heat Index 79 °F
Dew Point 51 °F
Humidity 39%
Rainfall 0.00 in
Snow Depth Not available.
6:43 AM 8:24 PM
Waning Gibbous, 54% visible
METAR KGYB 261455Z AUTO 08004KT 10SM SCT012 BKN017 BKN034 27/23 A3001 RMK AO2 T02670225

10-Day Weather Forecast

Almanac

Astronomy

Jul. 26, 2016 Rise Set
Actual Time
Civil Twilight
Nautical Twilight
Astronomical Twilight
Moon
Length of Visible Light
Length of Day
Tomorrow will be .
, % of the Moon is Illuminated

Today's Extremes

State Highs State Lows

Community

WunderPhotos

Upload Photos

1,927,612 photos uploaded!

WunderBlog® & News

Nearby

Air Quality

  Air Quality AQ Index Pollutant
Not available.

Snow Depth

Station Depth Elevation

Earthquake Activity

City Distance Mag. Time & Date
Minimum magnitude displayed is 2.5.

Coastal Water Temperatures

Place Temperature

Stations

Nearby Weather Stations

Station Location Temp. Windchill Dew Point Humidity Wind Precip. Elev Updated Type
                   

Watches & Warnings

There are currently no watches in effect.